createdAt,value
2022-12-15T00:02:17.578Z,13.67
2022-12-15T00:05:02.690Z,16.87
2022-12-15T00:07:48.011Z,15.57
2022-12-15T00:10:33.599Z,20.50
2022-12-15T00:13:18.891Z,15.67
2022-12-15T00:16:07.529Z,18.30
2022-12-15T00:18:52.776Z,17.17
2022-12-15T00:21:37.962Z,16.20
2022-12-15T00:24:23.471Z,18.40
2022-12-15T00:27:08.738Z,16.77
2022-12-15T00:29:54.801Z,16.10
2022-12-15T00:32:40.749Z,15.53
2022-12-15T00:35:26.468Z,14.03
2022-12-15T00:38:11.816Z,14.10
2022-12-15T00:40:38.339Z,15.50
2022-12-15T00:43:04.922Z,14.77
2022-12-15T00:45:50.335Z,13.50
2022-12-15T00:48:16.870Z,18.40
2022-12-15T00:50:52.163Z,14.87
2022-12-15T00:53:38.690Z,14.47
2022-12-15T00:56:24.018Z,11.67
2022-12-15T00:59:09.249Z,15.63
2022-12-15T01:01:54.704Z,16.80
2022-12-15T01:04:39.952Z,13.50
2022-12-15T01:07:25.206Z,14.80
2022-12-15T01:10:10.552Z,14.60
2022-12-15T01:12:55.940Z,12.20
2022-12-15T01:15:41.600Z,15.33
2022-12-15T01:18:26.850Z,15.07
2022-12-15T01:21:01.483Z,12.00
2022-12-15T01:23:29.256Z,16.63
2022-12-15T01:25:56.177Z,12.70
2022-12-15T01:28:23.335Z,11.70
2022-12-15T01:30:50.559Z,11.63
2022-12-15T01:33:18.412Z,12.87
2022-12-15T01:35:45.211Z,14.70
2022-12-15T01:38:11.791Z,13.73
2022-12-15T01:40:47.250Z,10.60
2022-12-15T01:43:20.756Z,11.00
2022-12-15T01:45:54.963Z,16.30
2022-12-15T01:48:44.289Z,11.10
2022-12-15T01:51:33.966Z,12.60
2022-12-15T01:54:15.602Z,8.87
2022-12-15T01:56:46.384Z,8.73
2022-12-15T01:59:19.880Z,11.67
2022-12-15T02:01:50.071Z,12.57
2022-12-15T02:04:19.591Z,10.80
2022-12-15T02:06:46.225Z,11.37
2022-12-15T02:09:13.041Z,7.90
2022-12-15T02:11:54.618Z,11.23
2022-12-15T02:14:32.302Z,9.80
2022-12-15T02:17:21.977Z,10.93
2022-12-15T02:20:21.351Z,9.60
2022-12-15T02:23:22.379Z,8.77
2022-12-15T02:26:39.156Z,9.50
2022-12-15T02:29:31.476Z,11.43
2022-12-15T02:32:07.565Z,7.60
2022-12-15T02:34:48.824Z,9.17
2022-12-15T02:37:32.719Z,9.80
2022-12-15T02:39:59.325Z,7.73
2022-12-15T02:42:28.425Z,11.33
2022-12-15T02:45:13.850Z,9.70
2022-12-15T02:48:21.472Z,8.10
2022-12-15T02:50:58.147Z,8.00
2022-12-15T02:53:54.917Z,9.10
2022-12-15T02:56:28.367Z,7.60
2022-12-15T02:59:16.437Z,9.03
2022-12-15T03:01:55.289Z,10.20
2022-12-15T03:04:22.728Z,7.70
2022-12-15T03:07:01.237Z,6.97
2022-12-15T03:09:28.194Z,8.93
2022-12-15T03:11:54.717Z,11.50
2022-12-15T03:14:21.705Z,8.70
2022-12-15T03:16:48.399Z,7.73
2022-12-15T03:19:14.989Z,7.50
2022-12-15T03:21:41.949Z,10.43
2022-12-15T03:24:08.993Z,11.00
2022-12-15T03:26:35.677Z,9.50
2022-12-15T03:29:02.274Z,8.20
2022-12-15T03:31:28.933Z,7.10
2022-12-15T03:33:55.608Z,9.10
2022-12-15T03:36:22.854Z,10.63
2022-12-15T03:38:49.820Z,7.17
2022-12-15T03:41:17.844Z,6.60
2022-12-15T03:43:46.183Z,6.57
2022-12-15T03:46:17.221Z,8.80
2022-12-15T03:48:43.928Z,7.70
2022-12-15T03:51:10.543Z,8.00
2022-12-15T03:53:37.125Z,7.77
2022-12-15T03:56:03.921Z,7.27
2022-12-15T03:58:30.468Z,6.90
2022-12-15T04:00:57.198Z,9.53
2022-12-15T04:03:24.417Z,10.00
2022-12-15T04:05:51.456Z,9.33
2022-12-15T04:08:18.084Z,7.27
2022-12-15T04:10:44.624Z,8.77
2022-12-15T04:13:12.238Z,7.83
2022-12-15T04:15:40.292Z,7.00
2022-12-15T04:18:09.915Z,10.27
2022-12-15T04:20:37.860Z,7.53
2022-12-15T04:23:07.529Z,8.17
2022-12-15T04:25:54.449Z,7.00
2022-12-15T04:28:39.793Z,7.47
2022-12-15T04:31:30.321Z,8.90
2022-12-15T04:34:20.453Z,7.27
2022-12-15T04:37:08.633Z,8.37
2022-12-15T04:39:55.564Z,7.33
2022-12-15T04:42:41.024Z,5.70
2022-12-15T04:45:27.302Z,7.17
2022-12-15T04:48:12.557Z,10.10
2022-12-15T04:50:58.303Z,6.97
2022-12-15T04:53:43.641Z,7.50
2022-12-15T04:56:31.054Z,5.80
2022-12-15T04:59:16.808Z,6.80
2022-12-15T05:02:04.858Z,7.30
2022-12-15T05:04:50.372Z,9.87
2022-12-15T05:07:35.765Z,7.67
2022-12-15T05:10:21.047Z,6.67
2022-12-15T05:13:06.286Z,5.97
2022-12-15T05:15:52.757Z,5.80
2022-12-15T05:18:38.874Z,5.50
2022-12-15T05:21:25.093Z,5.77
2022-12-15T05:24:10.602Z,6.03
2022-12-15T05:26:56.399Z,5.80
2022-12-15T05:29:41.759Z,7.03
2022-12-15T05:32:08.519Z,20.13
2022-12-15T05:34:36.536Z,9.53
2022-12-15T05:37:04.255Z,7.20
2022-12-15T05:39:31.141Z,5.57
2022-12-15T05:41:58.079Z,8.50
2022-12-15T05:44:25.793Z,5.70
2022-12-15T05:46:52.995Z,22.20
2022-12-15T05:49:19.935Z,8.83
2022-12-15T05:51:47.654Z,8.57
2022-12-15T05:54:17.105Z,13.67
2022-12-15T05:56:44.018Z,6.77
2022-12-15T05:59:11.016Z,8.43
2022-12-15T06:01:38.019Z,6.53
2022-12-15T06:04:05.062Z,6.70
2022-12-15T06:06:31.752Z,9.73
2022-12-15T06:08:59.430Z,8.27
2022-12-15T06:11:26.452Z,6.40
2022-12-15T06:13:55.712Z,9.80
2022-12-15T06:16:27.339Z,6.60
2022-12-15T06:18:57.598Z,8.90
2022-12-15T06:21:27.204Z,9.33
2022-12-15T06:23:54.451Z,6.33
2022-12-15T06:26:21.479Z,6.80
2022-12-15T06:28:49.407Z,7.80
2022-12-15T06:31:18.182Z,5.87
2022-12-15T06:33:44.975Z,6.77
2022-12-15T06:36:13.541Z,10.10
2022-12-15T06:38:43.351Z,5.60
2022-12-15T06:41:12.369Z,13.07
2022-12-15T06:43:41.465Z,6.53
2022-12-15T06:46:17.242Z,7.10
2022-12-15T06:48:46.638Z,7.30
2022-12-15T06:51:17.758Z,6.17
2022-12-15T06:53:57.151Z,7.33
2022-12-15T06:56:33.907Z,7.10
2022-12-15T06:59:06.004Z,6.47
2022-12-15T07:02:49.854Z,6.53
2022-12-15T07:04:55.116Z,7.23
2022-12-15T07:07:21.649Z,15.33
2022-12-15T07:09:48.295Z,6.90
2022-12-15T07:12:14.923Z,6.87
2022-12-15T07:14:41.538Z,6.80
2022-12-15T07:17:10.788Z,9.33
2022-12-15T07:19:38.092Z,7.33
2022-12-15T07:22:04.623Z,9.93
2022-12-15T07:24:31.225Z,5.43
2022-12-15T07:26:58.926Z,7.70
2022-12-15T07:29:25.483Z,7.50
2022-12-15T07:31:52.179Z,6.83
2022-12-15T07:34:18.869Z,7.90
2022-12-15T07:36:51.519Z,6.83
2022-12-15T07:39:18.919Z,4.77
2022-12-15T07:41:45.476Z,7.70
2022-12-15T07:44:12.341Z,9.73
2022-12-15T07:46:39.000Z,7.50
2022-12-15T07:49:05.624Z,5.53
2022-12-15T07:51:32.153Z,7.93
2022-12-15T07:53:58.947Z,6.80
2022-12-15T07:56:25.581Z,5.03
2022-12-15T07:58:52.156Z,7.00
2022-12-15T08:01:18.987Z,5.33
2022-12-15T08:03:45.872Z,5.87
2022-12-15T08:06:14.538Z,6.60
2022-12-15T08:08:42.792Z,5.77
2022-12-15T08:11:13.362Z,5.90
2022-12-15T08:16:28.996Z,7.17
2022-12-15T08:18:58.879Z,5.87
2022-12-15T08:21:25.771Z,7.90
2022-12-15T08:23:52.410Z,6.63
2022-12-15T08:26:22.685Z,8.03
2022-12-15T08:28:53.628Z,6.97
2022-12-15T08:31:22.965Z,6.90
2022-12-15T08:33:50.468Z,7.00
2022-12-15T08:36:18.772Z,6.17
2022-12-15T08:38:46.372Z,5.87
2022-12-15T08:41:23.440Z,7.10
2022-12-15T08:43:51.097Z,7.23
2022-12-15T08:46:23.609Z,8.87
2022-12-15T08:48:50.613Z,7.30
2022-12-15T08:51:17.681Z,6.63
2022-12-15T08:53:45.137Z,7.57
2022-12-15T08:56:15.678Z,8.27
2022-12-15T08:58:42.521Z,8.30
2022-12-15T09:01:16.062Z,6.63
2022-12-15T09:03:47.288Z,8.50
2022-12-15T09:06:25.287Z,5.60
2022-12-15T09:08:56.416Z,6.83
2022-12-15T09:11:24.437Z,8.20
2022-12-15T09:13:51.700Z,8.53
2022-12-15T09:16:19.347Z,5.70
2022-12-15T09:18:51.575Z,6.60
2022-12-15T09:21:19.542Z,5.97
2022-12-15T09:23:51.687Z,5.33
2022-12-15T09:26:20.232Z,8.17
2022-12-15T09:28:50.051Z,8.07
2022-12-15T09:31:23.025Z,6.07
2022-12-15T09:33:51.801Z,5.63
2022-12-15T09:36:20.178Z,8.83
2022-12-15T09:38:47.294Z,5.70
2022-12-15T09:41:13.837Z,8.50
2022-12-15T09:44:10.101Z,5.30
2022-12-15T09:47:15.119Z,29.00
2022-12-15T09:49:56.222Z,24.60
2022-12-15T09:52:27.646Z,26.90
2022-12-15T09:54:54.702Z,21.20
2022-12-15T09:57:53.024Z,20.77
2022-12-15T10:00:36.896Z,15.13
2022-12-15T10:03:40.489Z,15.60
2022-12-15T10:06:20.158Z,24.87
2022-12-15T10:08:58.271Z,17.00
2022-12-15T10:11:43.588Z,28.63
2022-12-15T10:14:23.256Z,17.10
2022-12-15T10:16:58.613Z,17.40
2022-12-15T10:19:40.952Z,22.17
2022-12-15T10:22:14.076Z,25.67
2022-12-15T10:28:04.396Z,14.47
2022-12-15T10:30:31.131Z,14.57
2022-12-15T10:33:26.019Z,12.23
2022-12-15T10:35:56.106Z,12.27
2022-12-15T10:38:37.984Z,14.40
2022-12-15T10:41:25.822Z,16.30
2022-12-15T10:43:53.951Z,11.10
2022-12-15T10:46:27.297Z,11.00
2022-12-15T10:48:59.261Z,13.87
2022-12-15T10:51:31.382Z,12.83
2022-12-15T10:54:10.303Z,13.23
2022-12-15T10:56:50.647Z,15.30
2022-12-15T10:59:24.720Z,13.47
2022-12-15T11:01:51.698Z,13.17
2022-12-15T11:04:54.764Z,15.70
2022-12-15T11:07:22.280Z,12.07
2022-12-15T11:09:49.390Z,11.13
2022-12-15T11:12:43.084Z,13.17
2022-12-15T11:15:21.555Z,14.77
2022-12-15T11:17:57.144Z,9.23
2022-12-15T11:20:35.636Z,9.70
2022-12-15T11:23:25.896Z,13.30
2022-12-15T11:26:00.447Z,7.17
2022-12-15T11:28:42.676Z,10.40
2022-12-15T11:31:30.035Z,10.77
2022-12-15T11:33:56.612Z,28.40
2022-12-15T11:36:23.215Z,15.17
2022-12-15T11:39:25.205Z,13.67
2022-12-15T11:42:08.416Z,17.60
2022-12-15T11:44:47.307Z,13.53
2022-12-15T11:47:29.450Z,15.20
2022-12-15T11:50:05.226Z,15.20
2022-12-15T11:52:55.180Z,17.73
2022-12-15T11:55:47.327Z,15.13
2022-12-15T11:58:34.447Z,24.10
2022-12-15T12:01:06.937Z,22.07
2022-12-15T12:04:21.569Z,30.07
2022-12-15T12:07:18.174Z,25.83
2022-12-15T12:09:45.162Z,30.07
2022-12-15T12:12:29.752Z,26.50
2022-12-15T12:15:11.055Z,29.00
2022-12-15T12:17:45.868Z,24.00
2022-12-15T12:20:20.952Z,35.00
2022-12-15T12:22:55.324Z,18.43
2022-12-15T12:25:25.408Z,22.97
2022-12-15T12:27:54.720Z,27.07
2022-12-15T12:30:24.075Z,19.67
2022-12-15T12:33:05.575Z,20.23
2022-12-15T12:35:48.908Z,24.50
2022-12-15T12:38:20.152Z,27.77
2022-12-15T12:41:18.537Z,19.33
2022-12-15T12:43:53.016Z,19.73
2022-12-15T12:46:34.024Z,17.30
2022-12-15T12:49:12.013Z,21.10
2022-12-15T12:51:48.848Z,21.60
2022-12-15T12:54:52.577Z,16.40
2022-12-15T12:57:33.979Z,19.07
2022-12-15T13:00:02.238Z,18.80
2022-12-15T13:02:34.974Z,21.33
2022-12-15T13:05:21.664Z,20.50
2022-12-15T13:08:08.077Z,15.90
2022-12-15T13:10:47.389Z,20.73
2022-12-15T13:13:32.498Z,20.20
2022-12-15T13:16:06.550Z,16.60
2022-12-15T13:19:06.763Z,14.13
2022-12-15T13:21:42.632Z,16.93
2022-12-15T13:24:19.152Z,16.60
2022-12-15T13:26:48.642Z,17.73
2022-12-15T13:29:19.553Z,16.13
2022-12-15T13:31:50.939Z,15.60
2022-12-15T13:34:26.276Z,15.30
2022-12-15T13:36:55.875Z,18.93
2022-12-15T13:39:22.439Z,14.33
2022-12-15T13:42:31.490Z,20.30
2022-12-15T13:47:31.713Z,14.90
2022-12-15T13:50:19.440Z,17.33
2022-12-15T13:53:17.729Z,15.63
2022-12-15T13:55:45.889Z,13.97
2022-12-15T13:58:18.365Z,17.70
2022-12-15T14:00:53.268Z,12.80
2022-12-15T14:03:20.425Z,11.70
2022-12-15T14:05:55.560Z,14.20
2022-12-15T14:08:24.308Z,13.90
2022-12-15T14:10:53.661Z,14.37
2022-12-15T14:13:24.512Z,10.43
2022-12-15T14:15:58.763Z,19.10
2022-12-15T14:18:30.112Z,19.33
2022-12-15T14:20:57.920Z,13.77
2022-12-15T14:23:31.562Z,11.00
2022-12-15T14:26:07.237Z,13.50
2022-12-15T14:29:04.047Z,12.60
2022-12-15T14:31:31.060Z,12.47
2022-12-15T14:34:06.100Z,12.90
2022-12-15T14:36:33.074Z,12.60
2022-12-15T14:39:04.668Z,11.03
2022-12-15T14:41:35.468Z,11.33
2022-12-15T14:44:37.365Z,11.77
2022-12-15T14:47:06.941Z,9.50
2022-12-15T14:49:42.276Z,12.33
2022-12-15T14:52:29.172Z,12.20
2022-12-15T14:54:59.023Z,14.30
2022-12-15T14:57:45.346Z,11.67
2022-12-15T15:00:28.613Z,9.53
2022-12-15T15:03:13.203Z,16.87
2022-12-15T15:05:59.904Z,13.13
2022-12-15T15:08:28.541Z,11.67
2022-12-15T15:10:57.876Z,9.10
2022-12-15T15:13:28.153Z,11.10
2022-12-15T15:16:00.091Z,11.63
2022-12-15T15:18:29.175Z,13.20
2022-12-15T15:21:03.229Z,14.57
2022-12-15T15:23:30.610Z,8.00
2022-12-15T15:26:05.942Z,11.17
2022-12-15T15:28:40.522Z,12.50
2022-12-15T15:31:25.171Z,11.63
2022-12-15T15:33:52.667Z,8.67
2022-12-15T15:36:19.263Z,8.83
2022-12-15T15:38:46.871Z,8.73
2022-12-15T15:41:29.415Z,11.03
2022-12-15T15:43:59.102Z,10.37
2022-12-15T15:46:32.872Z,9.00
2022-12-15T15:49:05.351Z,8.37
2022-12-15T15:51:32.943Z,12.97
2022-12-15T15:54:04.491Z,10.10
2022-12-15T15:56:31.416Z,22.63
2022-12-15T15:59:02.329Z,9.20
2022-12-15T16:01:28.956Z,10.90
2022-12-15T16:03:55.737Z,13.93
2022-12-15T16:06:24.102Z,8.30
2022-12-15T16:08:53.655Z,13.23
2022-12-15T16:11:27.787Z,11.40
2022-12-15T16:13:54.493Z,11.13
2022-12-15T16:16:23.973Z,11.17
2022-12-15T16:18:50.915Z,10.87
2022-12-15T16:21:25.668Z,9.50
2022-12-15T16:23:53.767Z,8.90
2022-12-15T16:26:28.488Z,11.43
2022-12-15T16:28:55.244Z,9.00
2022-12-15T16:31:34.271Z,8.27
2022-12-15T16:34:05.627Z,8.50
2022-12-15T16:36:32.849Z,10.67
2022-12-15T16:38:59.373Z,14.27
2022-12-15T16:41:27.583Z,8.83
2022-12-15T16:43:54.267Z,9.50
2022-12-15T16:46:20.870Z,10.03
2022-12-15T16:48:47.554Z,9.43
2022-12-15T16:51:36.882Z,9.80
2022-12-15T16:54:04.140Z,10.90
2022-12-15T16:56:30.689Z,10.00
2022-12-15T16:59:30.869Z,7.20
2022-12-15T17:01:44.485Z,11.77
2022-12-15T17:04:11.877Z,9.80
2022-12-15T17:06:38.598Z,23.17
2022-12-15T17:09:06.374Z,11.70
2022-12-15T17:11:32.989Z,9.80
2022-12-15T17:14:00.726Z,7.33
2022-12-15T17:16:28.622Z,11.53
2022-12-15T17:18:55.346Z,7.77
2022-12-15T17:21:42.238Z,19.73
2022-12-15T17:24:13.735Z,7.43
2022-12-15T17:26:41.995Z,9.30
2022-12-15T17:29:15.568Z,10.30
2022-12-15T17:31:42.153Z,8.77
2022-12-15T17:34:27.386Z,8.80
2022-12-15T17:36:54.848Z,8.63
2022-12-15T17:39:22.414Z,8.53
2022-12-15T17:41:59.842Z,9.13
2022-12-15T17:44:34.969Z,11.60
2022-12-15T17:47:04.397Z,12.03
2022-12-15T17:49:35.609Z,13.33
2022-12-15T17:52:24.258Z,17.63
2022-12-15T17:54:52.096Z,8.63
2022-12-15T17:57:18.675Z,12.03
2022-12-15T17:59:45.353Z,9.03
2022-12-15T18:02:14.047Z,10.47
2022-12-15T18:04:41.516Z,9.53
2022-12-15T18:07:16.953Z,11.63
2022-12-15T18:09:43.786Z,8.97
2022-12-15T18:12:19.786Z,10.03
2022-12-15T18:14:46.580Z,7.97
2022-12-15T18:17:13.150Z,12.10
2022-12-15T18:19:40.006Z,12.70
2022-12-15T18:22:20.321Z,11.70
2022-12-15T18:24:47.112Z,8.50
2022-12-15T18:27:26.827Z,9.10
2022-12-15T18:29:54.219Z,13.10
2022-12-15T18:32:23.454Z,14.83
2022-12-15T18:34:50.488Z,10.50
2022-12-15T18:37:19.002Z,12.00
2022-12-15T18:39:46.309Z,10.70
2022-12-15T18:42:19.100Z,13.73
2022-12-15T18:44:48.143Z,7.20
2022-12-15T18:47:19.903Z,16.13
2022-12-15T18:49:46.858Z,9.87
2022-12-15T18:52:17.437Z,8.57
2022-12-15T18:54:44.773Z,8.67
2022-12-15T18:57:29.328Z,9.13
2022-12-15T19:00:01.810Z,11.27
2022-12-15T19:02:28.591Z,10.20
2022-12-15T19:04:55.268Z,10.40
2022-12-15T19:07:21.920Z,11.57
2022-12-15T19:09:49.396Z,9.93
2022-12-15T19:12:19.759Z,9.90
2022-12-15T19:14:48.789Z,35.43
2022-12-15T19:17:39.441Z,12.13
2022-12-15T19:20:33.456Z,11.27
2022-12-15T19:23:00.453Z,9.87
2022-12-15T19:25:29.256Z,13.90
2022-12-15T19:28:00.338Z,12.13
2022-12-15T19:30:29.046Z,12.97
2022-12-15T19:32:55.973Z,13.37
2022-12-15T19:35:22.656Z,11.10
2022-12-15T19:37:49.870Z,13.90
2022-12-15T19:40:27.518Z,9.10
2022-12-15T19:42:55.408Z,9.80
2022-12-15T19:45:28.218Z,10.20
2022-12-15T19:47:55.586Z,8.87
2022-12-15T19:50:35.985Z,9.00
2022-12-15T19:53:06.687Z,10.80
2022-12-15T19:55:35.720Z,9.47
2022-12-15T19:58:27.790Z,9.70
2022-12-15T20:00:57.539Z,9.07
2022-12-15T20:03:24.957Z,8.60
2022-12-15T20:05:54.076Z,10.97
2022-12-15T20:08:26.713Z,12.33
2022-12-15T20:10:54.319Z,9.90
2022-12-15T20:13:22.167Z,11.00
2022-12-15T20:15:48.955Z,9.63
2022-12-15T20:18:15.497Z,10.03
2022-12-15T20:20:45.347Z,12.03
2022-12-15T20:23:27.702Z,10.90
2022-12-15T20:25:55.906Z,8.60
2022-12-15T20:28:25.510Z,10.73
2022-12-15T20:30:52.878Z,10.00
2022-12-15T20:33:19.853Z,9.77
2022-12-15T20:35:48.437Z,10.23
2022-12-15T20:38:29.183Z,10.77
2022-12-15T20:40:56.471Z,10.30
2022-12-15T20:43:24.190Z,10.80
2022-12-15T20:46:01.895Z,11.03
2022-12-15T20:48:29.925Z,11.33
2022-12-15T20:50:56.609Z,10.80
2022-12-15T20:53:25.686Z,10.93
2022-12-15T20:55:54.000Z,10.00
2022-12-15T20:58:21.291Z,10.03
2022-12-15T21:00:49.823Z,11.67
2022-12-15T21:03:28.139Z,14.97
2022-12-15T21:05:57.528Z,10.33
2022-12-15T21:08:29.984Z,9.97
2022-12-15T21:11:01.760Z,14.50
2022-12-15T21:13:31.637Z,10.87
2022-12-15T21:15:59.859Z,11.30
2022-12-15T21:19:10.788Z,11.30
2022-12-15T21:21:29.240Z,10.07
2022-12-15T21:23:58.419Z,10.00
2022-12-15T21:26:25.939Z,10.30
2022-12-15T21:28:58.985Z,9.97
2022-12-15T21:31:26.252Z,13.07
2022-12-15T21:33:53.122Z,11.53
2022-12-15T21:36:22.138Z,10.90
2022-12-15T21:38:51.816Z,13.67
2022-12-15T21:41:21.880Z,11.03
2022-12-15T21:43:48.681Z,13.20
2022-12-15T21:46:26.138Z,14.43
2022-12-15T21:49:24.824Z,14.37
2022-12-15T21:51:57.123Z,13.57
2022-12-15T21:54:30.733Z,11.97
2022-12-15T21:57:01.023Z,10.63
2022-12-15T21:59:30.163Z,42.83
2022-12-15T22:01:57.079Z,55.80
2022-12-15T22:04:28.033Z,36.20
2022-12-15T22:06:54.672Z,36.70
2022-12-15T22:09:21.693Z,32.77
2022-12-15T22:11:54.037Z,35.37
2022-12-15T22:14:26.873Z,33.10
2022-12-15T22:16:53.991Z,35.23
2022-12-15T22:19:21.540Z,32.53
2022-12-15T22:21:48.089Z,28.80
2022-12-15T22:24:15.347Z,28.50
2022-12-15T22:26:42.423Z,28.90
2022-12-15T22:29:23.231Z,28.30
2022-12-15T22:31:50.327Z,26.10
2022-12-15T22:34:22.896Z,36.23
2022-12-15T22:36:50.568Z,25.73
2022-12-15T22:39:18.686Z,29.30
2022-12-15T22:41:47.501Z,27.30
2022-12-15T22:44:29.636Z,24.67
2022-12-15T22:46:58.141Z,25.87
2022-12-15T22:49:35.495Z,26.37
2022-12-15T22:52:02.509Z,20.60
2022-12-15T22:54:31.956Z,25.57
2022-12-15T22:57:05.127Z,24.40
2022-12-15T22:59:43.816Z,25.60
2022-12-15T23:02:11.254Z,20.80
2022-12-15T23:04:37.863Z,25.27
2022-12-15T23:07:09.906Z,23.00
2022-12-15T23:09:36.670Z,22.90
2022-12-15T23:12:03.398Z,23.00
2022-12-15T23:14:50.289Z,22.00
2022-12-15T23:17:16.931Z,22.00
2022-12-15T23:19:44.667Z,20.17
2022-12-15T23:22:11.376Z,22.20
2022-12-15T23:24:38.933Z,23.07
2022-12-15T23:27:09.181Z,21.43
2022-12-15T23:29:35.750Z,23.03
2022-12-15T23:32:02.302Z,21.20
2022-12-15T23:34:28.867Z,19.73
2022-12-15T23:36:55.472Z,23.23
2022-12-15T23:39:22.008Z,21.97
2022-12-15T23:41:48.539Z,18.57
2022-12-15T23:44:15.202Z,18.70
2022-12-15T23:46:42.003Z,18.10
2022-12-15T23:49:08.610Z,19.10
2022-12-15T23:51:35.180Z,18.60
2022-12-15T23:54:01.769Z,17.67
2022-12-15T23:56:28.317Z,21.93
2022-12-15T23:58:57.099Z,17.73
